createdAt,value
2023-08-29T00:03:49.148Z,15.00
2023-08-29T00:08:01.634Z,14.88
2023-08-29T00:12:14.071Z,15.23
2023-08-29T00:16:26.803Z,14.40
2023-08-29T00:20:39.188Z,14.65
2023-08-29T00:24:53.796Z,14.40
2023-08-29T00:29:06.386Z,14.38
2023-08-29T00:33:18.917Z,14.45
2023-08-29T00:37:31.229Z,13.32
2023-08-29T00:41:45.255Z,13.70
2023-08-29T00:46:00.502Z,14.13
2023-08-29T00:50:13.008Z,13.88
2023-08-29T00:54:26.060Z,14.07
2023-08-29T00:58:38.572Z,13.15
2023-08-29T01:02:51.151Z,13.55
2023-08-29T01:07:04.860Z,13.98
2023-08-29T01:11:35.592Z,13.90
2023-08-29T01:15:51.974Z,14.07
2023-08-29T01:20:06.661Z,13.70
2023-08-29T01:24:27.701Z,13.88
2023-08-29T01:28:42.389Z,15.27
2023-08-29T01:32:56.462Z,14.48
2023-08-29T01:37:10.005Z,14.27
2023-08-29T01:41:22.364Z,15.05
2023-08-29T01:45:35.163Z,15.30
2023-08-29T01:49:48.198Z,16.65
2023-08-29T01:54:00.911Z,16.25
2023-08-29T01:58:15.648Z,16.38
2023-08-29T02:02:28.392Z,15.55
2023-08-29T02:06:40.795Z,16.05
2023-08-29T02:10:54.456Z,13.80
2023-08-29T02:15:07.766Z,15.52
2023-08-29T02:19:21.003Z,13.13
2023-08-29T02:23:33.384Z,12.20
2023-08-29T02:27:45.734Z,12.35
2023-08-29T02:31:58.152Z,11.60
2023-08-29T02:36:10.529Z,10.98
2023-08-29T02:40:23.864Z,10.40
2023-08-29T02:44:36.341Z,10.75
2023-08-29T02:48:48.827Z,10.30
2023-08-29T02:53:01.241Z,9.93
2023-08-29T02:57:13.801Z,9.73
2023-08-29T03:01:26.214Z,9.55
2023-08-29T03:05:38.645Z,9.10
2023-08-29T03:09:51.089Z,8.68
2023-08-29T03:14:05.235Z,8.13
2023-08-29T03:18:17.923Z,7.57
2023-08-29T03:22:32.765Z,7.68
2023-08-29T03:26:45.137Z,7.65
2023-08-29T03:30:57.634Z,7.60
2023-08-29T03:35:09.981Z,8.02
2023-08-29T03:39:22.554Z,7.68
2023-08-29T03:43:36.726Z,7.20
2023-08-29T03:47:50.479Z,7.40
2023-08-29T03:52:03.970Z,7.25
2023-08-29T03:56:17.065Z,5.60
2023-08-29T04:00:29.523Z,5.25
2023-08-29T04:04:45.690Z,5.65
2023-08-29T04:08:58.302Z,5.55
2023-08-29T04:13:11.641Z,4.70
2023-08-29T04:17:26.475Z,5.35
2023-08-29T04:21:39.000Z,5.18
2023-08-29T04:25:51.400Z,5.32
2023-08-29T04:30:05.765Z,5.60
2023-08-29T04:34:18.607Z,6.75
2023-08-29T04:38:32.906Z,6.72
2023-08-29T04:42:49.080Z,6.35
2023-08-29T04:47:01.943Z,6.47
2023-08-29T04:51:14.530Z,7.57
2023-08-29T04:55:27.664Z,6.38
2023-08-29T04:59:40.165Z,7.20
2023-08-29T05:03:53.004Z,6.45
2023-08-29T05:08:06.117Z,6.90
2023-08-29T05:12:20.901Z,6.47
2023-08-29T05:16:34.156Z,6.22
2023-08-29T05:20:46.706Z,6.30
2023-08-29T05:24:59.179Z,6.20
2023-08-29T05:29:11.612Z,6.40
2023-08-29T05:33:23.920Z,6.65
2023-08-29T05:37:36.440Z,5.88
2023-08-29T05:41:48.778Z,5.68
2023-08-29T05:46:02.255Z,5.80
2023-08-29T05:50:17.886Z,5.85
2023-08-29T05:54:31.103Z,5.07
2023-08-29T05:58:44.268Z,6.47
2023-08-29T06:02:56.774Z,6.07
2023-08-29T06:07:09.314Z,6.80
2023-08-29T06:11:21.771Z,6.60
2023-08-29T06:15:34.096Z,6.28
2023-08-29T06:19:46.889Z,5.90
2023-08-29T06:23:59.675Z,6.10
2023-08-29T06:28:12.115Z,5.93
2023-08-29T06:32:24.616Z,6.50
2023-08-29T06:36:37.086Z,5.85
2023-08-29T06:40:59.838Z,7.15
2023-08-29T06:45:12.327Z,7.07
2023-08-29T06:49:24.699Z,6.95
2023-08-29T06:53:37.126Z,6.25
2023-08-29T06:57:49.647Z,6.88
2023-08-29T07:02:02.146Z,7.53
2023-08-29T07:06:14.572Z,6.22
2023-08-29T07:10:27.439Z,7.10
2023-08-29T07:14:42.793Z,6.60
2023-08-29T07:18:56.417Z,7.82
2023-08-29T07:23:09.173Z,7.10
2023-08-29T07:27:21.641Z,8.27
2023-08-29T07:31:35.871Z,7.60
2023-08-29T07:35:50.134Z,6.93
2023-08-29T07:40:02.595Z,7.25
2023-08-29T07:44:15.089Z,7.18
2023-08-29T07:48:27.527Z,6.82
2023-08-29T07:52:41.913Z,6.70
2023-08-29T07:56:54.901Z,7.93
2023-08-29T08:01:07.207Z,6.95
2023-08-29T08:05:20.168Z,6.72
2023-08-29T08:09:33.659Z,6.70
2023-08-29T08:13:46.335Z,5.95
2023-08-29T08:17:58.669Z,6.20
2023-08-29T08:22:11.922Z,6.10
2023-08-29T08:26:24.289Z,5.80
2023-08-29T08:30:41.340Z,5.07
2023-08-29T08:34:56.762Z,5.13
2023-08-29T08:39:09.259Z,5.85
2023-08-29T08:43:23.032Z,4.85
2023-08-29T08:47:36.738Z,3.45
2023-08-29T08:51:50.158Z,4.88
2023-08-29T08:56:04.012Z,4.65
2023-08-29T09:00:17.004Z,5.07
2023-08-29T09:04:29.449Z,4.90
2023-08-29T09:08:43.510Z,5.00
2023-08-29T09:12:57.556Z,5.85
2023-08-29T09:17:12.757Z,5.55
2023-08-29T09:21:26.244Z,6.10
2023-08-29T09:25:38.992Z,7.22
2023-08-29T09:29:51.481Z,6.15
2023-08-29T09:34:06.271Z,5.68
2023-08-29T09:38:20.048Z,5.03
2023-08-29T09:42:32.617Z,5.85
2023-08-29T09:46:46.704Z,6.28
2023-08-29T09:51:01.053Z,5.93
2023-08-29T09:55:16.478Z,5.30
2023-08-29T09:59:32.754Z,5.78
2023-08-29T10:03:48.127Z,6.55
2023-08-29T10:08:07.012Z,5.30
2023-08-29T10:12:20.649Z,6.32
2023-08-29T10:16:33.662Z,6.50
2023-08-29T10:20:47.524Z,6.68
2023-08-29T10:25:02.161Z,5.45
2023-08-29T10:29:15.992Z,5.28
2023-08-29T10:33:30.223Z,5.43
2023-08-29T10:37:43.423Z,6.35
2023-08-29T10:41:58.018Z,6.57
2023-08-29T10:46:13.542Z,6.13
2023-08-29T10:50:28.486Z,5.30
2023-08-29T10:54:41.891Z,9.80
2023-08-29T10:58:54.513Z,6.95
2023-08-29T11:03:07.265Z,9.27
2023-08-29T11:07:27.139Z,6.22
2023-08-29T11:11:40.790Z,8.38
2023-08-29T11:15:53.157Z,7.47
2023-08-29T11:20:08.463Z,6.30
2023-08-29T11:24:22.613Z,11.70
2023-08-29T11:28:35.720Z,21.92
2023-08-29T11:32:53.070Z,5.93
2023-08-29T11:37:11.374Z,4.53
2023-08-29T11:41:38.200Z,4.43
2023-08-29T11:46:00.456Z,4.45
2023-08-29T11:50:13.387Z,8.30
2023-08-29T11:54:47.102Z,3.70
2023-08-29T11:59:02.234Z,6.55
2023-08-29T12:03:14.830Z,2.95
2023-08-29T12:07:33.863Z,3.20
2023-08-29T12:11:47.604Z,2.90
2023-08-29T12:16:00.113Z,2.50
2023-08-29T12:20:15.457Z,2.88
2023-08-29T12:24:28.104Z,2.80
2023-08-29T12:28:41.069Z,2.30
2023-08-29T12:32:54.610Z,2.20
2023-08-29T12:37:07.170Z,2.08
2023-08-29T12:41:19.606Z,2.00
2023-08-29T12:45:36.639Z,2.13
2023-08-29T12:49:57.321Z,2.28
2023-08-29T12:54:10.314Z,2.20
2023-08-29T12:58:22.831Z,2.28
2023-08-29T13:02:36.110Z,1.90
2023-08-29T13:06:48.596Z,1.80
2023-08-29T13:11:01.621Z,1.65
2023-08-29T13:15:17.255Z,1.85
2023-08-29T13:19:29.859Z,2.20
2023-08-29T13:23:42.280Z,1.98
2023-08-29T13:27:57.888Z,1.75
2023-08-29T13:32:10.714Z,2.35
2023-08-29T13:36:23.311Z,1.75
2023-08-29T13:40:52.545Z,1.67
2023-08-29T13:45:05.957Z,1.90
2023-08-29T13:49:18.825Z,1.70
2023-08-29T13:53:31.325Z,2.28
2023-08-29T13:57:44.245Z,1.48
2023-08-29T14:01:56.775Z,1.90
2023-08-29T14:06:09.751Z,2.65
2023-08-29T14:10:22.211Z,2.20
2023-08-29T14:14:34.604Z,2.20
2023-08-29T14:18:47.511Z,2.03
2023-08-29T14:23:02.419Z,2.60
2023-08-29T14:27:14.876Z,2.30
2023-08-29T14:31:27.352Z,2.50
2023-08-29T14:35:40.204Z,1.77
2023-08-29T14:39:52.741Z,2.35
2023-08-29T14:44:06.756Z,2.63
2023-08-29T14:48:21.298Z,3.70
2023-08-29T14:52:34.129Z,3.13
2023-08-29T14:56:46.543Z,2.60
2023-08-29T15:00:59.279Z,3.08
2023-08-29T15:05:13.146Z,2.30
2023-08-29T15:09:25.555Z,2.50
2023-08-29T15:13:39.996Z,2.20
2023-08-29T15:17:52.638Z,2.75
2023-08-29T15:22:05.233Z,2.25
2023-08-29T15:26:17.615Z,1.90
2023-08-29T15:30:30.020Z,2.20
2023-08-29T15:34:42.403Z,1.90
2023-08-29T15:38:54.876Z,2.30
2023-08-29T15:43:07.222Z,2.70
2023-08-29T15:47:19.567Z,2.40
2023-08-29T15:51:33.158Z,2.40
2023-08-29T15:55:47.109Z,2.72
2023-08-29T15:59:59.718Z,2.38
2023-08-29T16:04:12.989Z,2.55
2023-08-29T16:08:26.720Z,2.40
2023-08-29T16:12:39.238Z,2.60
2023-08-29T16:16:51.596Z,2.30
2023-08-29T16:21:05.262Z,2.38
2023-08-29T16:25:17.827Z,2.03
2023-08-29T16:29:31.759Z,2.55
2023-08-29T16:33:44.089Z,2.42
2023-08-29T16:38:05.642Z,3.20
2023-08-29T16:42:18.336Z,2.15
2023-08-29T16:46:31.482Z,2.92
2023-08-29T16:50:47.008Z,2.88
2023-08-29T16:54:59.607Z,2.40
2023-08-29T16:59:14.794Z,3.03
2023-08-29T17:03:27.392Z,2.88
2023-08-29T17:07:39.863Z,2.58
2023-08-29T17:11:52.343Z,3.03
2023-08-29T17:16:06.277Z,3.25
2023-08-29T17:20:18.974Z,3.10
2023-08-29T17:24:32.488Z,2.65
2023-08-29T17:28:44.995Z,3.17
2023-08-29T17:32:57.578Z,3.13
2023-08-29T17:37:10.037Z,3.47
2023-08-29T17:41:23.815Z,2.88
2023-08-29T17:45:43.974Z,3.10
2023-08-29T17:49:56.484Z,3.25
2023-08-29T17:54:09.357Z,3.20
2023-08-29T17:58:25.821Z,3.67
2023-08-29T18:02:38.435Z,5.63
2023-08-29T18:06:50.863Z,8.70
2023-08-29T18:11:03.455Z,9.45
2023-08-29T18:15:16.580Z,2.97
2023-08-29T18:19:28.904Z,3.63
2023-08-29T18:23:41.354Z,3.00
2023-08-29T18:27:53.905Z,2.85
2023-08-29T18:32:06.727Z,3.05
2023-08-29T18:36:19.246Z,3.40
2023-08-29T18:40:31.982Z,3.17
2023-08-29T18:44:44.364Z,3.00
2023-08-29T18:48:57.430Z,3.60
2023-08-29T18:53:11.111Z,4.45
2023-08-29T18:57:23.815Z,3.70
2023-08-29T19:01:36.534Z,3.20
2023-08-29T19:05:49.219Z,4.57
2023-08-29T19:10:02.496Z,3.58
2023-08-29T19:14:14.887Z,3.50
2023-08-29T19:18:28.441Z,3.58
2023-08-29T19:22:40.927Z,3.55
2023-08-29T19:26:53.311Z,3.45
2023-08-29T19:31:05.735Z,4.20
2023-08-29T19:35:18.255Z,3.60
2023-08-29T19:39:31.868Z,3.67
2023-08-29T19:43:44.358Z,3.40
2023-08-29T19:47:57.361Z,3.72
2023-08-29T19:52:09.991Z,4.20
2023-08-29T19:56:22.316Z,3.05
2023-08-29T20:00:34.783Z,4.15
2023-08-29T20:04:47.178Z,3.70
2023-08-29T20:08:59.676Z,3.75
2023-08-29T20:13:12.331Z,3.35
2023-08-29T20:17:25.489Z,3.50
2023-08-29T20:21:38.060Z,3.40
2023-08-29T20:25:52.121Z,2.58
2023-08-29T20:30:06.048Z,2.30
2023-08-29T20:34:18.504Z,3.03
2023-08-29T20:38:31.073Z,2.92
2023-08-29T20:42:43.711Z,2.65
2023-08-29T20:46:56.239Z,2.70
2023-08-29T20:51:08.957Z,2.65
2023-08-29T20:55:23.266Z,2.40
2023-08-29T20:59:35.746Z,2.33
2023-08-29T21:03:48.215Z,2.53
2023-08-29T21:08:00.776Z,3.13
2023-08-29T21:12:13.329Z,2.60
2023-08-29T21:16:25.993Z,3.30
2023-08-29T21:20:39.110Z,2.42
2023-08-29T21:24:51.612Z,2.38
2023-08-29T21:29:04.088Z,2.20
2023-08-29T21:33:16.545Z,2.70
2023-08-29T21:37:28.985Z,2.53
2023-08-29T21:41:41.873Z,3.28
2023-08-29T21:46:01.944Z,2.75
2023-08-29T21:50:14.493Z,2.58
2023-08-29T21:54:26.805Z,2.72
2023-08-29T21:58:39.428Z,2.42
2023-08-29T22:02:55.748Z,2.35
2023-08-29T22:07:08.270Z,2.30
2023-08-29T22:11:20.668Z,2.83
2023-08-29T22:15:33.192Z,2.58
2023-08-29T22:19:45.643Z,2.60
2023-08-29T22:23:58.045Z,2.83
2023-08-29T22:28:10.792Z,2.35
2023-08-29T22:32:23.586Z,2.50
2023-08-29T22:36:37.307Z,2.78
2023-08-29T22:40:50.322Z,2.60
2023-08-29T22:45:02.645Z,2.60
2023-08-29T22:49:15.033Z,2.28
2023-08-29T22:53:27.453Z,2.70
2023-08-29T22:57:39.917Z,2.08
2023-08-29T23:01:53.416Z,2.47
2023-08-29T23:06:06.955Z,2.42
2023-08-29T23:10:19.560Z,2.75
2023-08-29T23:14:32.655Z,2.42
2023-08-29T23:18:45.089Z,2.63
2023-08-29T23:22:57.513Z,2.42
2023-08-29T23:27:09.895Z,2.60
2023-08-29T23:31:22.330Z,2.58
2023-08-29T23:35:34.841Z,2.33
2023-08-29T23:39:47.373Z,2.45
2023-08-29T23:44:00.484Z,2.80
2023-08-29T23:48:12.937Z,3.42
2023-08-29T23:52:25.970Z,2.67
2023-08-29T23:56:38.522Z,3.08
